Kisakata, Japan
Current Conditions -  °F | °C
As of 9:00 AM on Monday 24 Nov 2014 (Local Time) from RJSY Reporting Station
Broken Clouds Broken Clouds  
Wind Chill:   Ceiling: Unl
Heat Index:   Visibility: 6mi
Dew Point:   Wind: 8mph
Humidity: 81%   Direction: 100°E
Pressure: 30.21"   Gusts: NA
Location:  39.22°N, 139.9°E
Report Text: RJSY 240000Z 10007KT 9999 FEW008 SCT140 BKN/// 04/01 Q1023
Loading
Personal Weather Stations






























Interactive Weather Map New forecast layout! Learn more

10-Day Weather Forecast

Advertisements
Track Severe Weather on mobile